sensor_id;sensor_type;location;lat;lon;timestamp;temperature;humidity
10062;DHT22;5070;52.382;5.270;2023-08-30T00:00:01;23.30;75.20
10062;DHT22;5070;52.382;5.270;2023-08-30T00:02:33;23.20;75.10
10062;DHT22;5070;52.382;5.270;2023-08-30T00:05:02;23.20;75.10
10062;DHT22;5070;52.382;5.270;2023-08-30T00:07:31;23.20;75.10
10062;DHT22;5070;52.382;5.270;2023-08-30T00:09:59;23.20;74.90
10062;DHT22;5070;52.382;5.270;2023-08-30T00:12:27;23.20;75.00
10062;DHT22;5070;52.382;5.270;2023-08-30T00:14:56;23.20;74.80
10062;DHT22;5070;52.382;5.270;2023-08-30T00:17:24;23.20;74.60
10062;DHT22;5070;52.382;5.270;2023-08-30T00:19:53;23.20;74.80
10062;DHT22;5070;52.382;5.270;2023-08-30T00:22:22;23.20;75.50
10062;DHT22;5070;52.382;5.270;2023-08-30T00:24:50;23.20;74.60
10062;DHT22;5070;52.382;5.270;2023-08-30T00:27:18;23.20;74.60
10062;DHT22;5070;52.382;5.270;2023-08-30T00:29:47;23.20;74.60
10062;DHT22;5070;52.382;5.270;2023-08-30T00:32:15;23.20;74.60
10062;DHT22;5070;52.382;5.270;2023-08-30T00:34:43;23.20;74.50
10062;DHT22;5070;52.382;5.270;2023-08-30T00:37:13;23.20;74.50
10062;DHT22;5070;52.382;5.270;2023-08-30T00:39:41;23.20;74.50
10062;DHT22;5070;52.382;5.270;2023-08-30T00:42:09;23.10;74.50
10062;DHT22;5070;52.382;5.270;2023-08-30T00:44:39;23.10;75.30
10062;DHT22;5070;52.382;5.270;2023-08-30T00:47:08;23.10;74.50
10062;DHT22;5070;52.382;5.270;2023-08-30T00:49:36;23.10;74.40
10062;DHT22;5070;52.382;5.270;2023-08-30T00:52:06;23.10;74.50
10062;DHT22;5070;52.382;5.270;2023-08-30T00:54:37;23.10;74.50
10062;DHT22;5070;52.382;5.270;2023-08-30T00:57:06;23.10;74.40
10062;DHT22;5070;52.382;5.270;2023-08-30T00:59:34;23.10;74.40
10062;DHT22;5070;52.382;5.270;2023-08-30T01:02:04;23.10;74.40
10062;DHT22;5070;52.382;5.270;2023-08-30T01:04:33;23.10;74.30
10062;DHT22;5070;52.382;5.270;2023-08-30T01:07:01;23.10;74.40
10062;DHT22;5070;52.382;5.270;2023-08-30T01:09:29;23.10;74.60
10062;DHT22;5070;52.382;5.270;2023-08-30T01:12:04;23.10;74.40
10062;DHT22;5070;52.382;5.270;2023-08-30T01:14:39;23.10;74.30
10062;DHT22;5070;52.382;5.270;2023-08-30T01:17:10;23.00;74.20
10062;DHT22;5070;52.382;5.270;2023-08-30T01:19:48;23.10;74.40
10062;DHT22;5070;52.382;5.270;2023-08-30T01:22:20;23.00;74.20
10062;DHT22;5070;52.382;5.270;2023-08-30T01:25:00;23.00;74.30
10062;DHT22;5070;52.382;5.270;2023-08-30T01:27:34;23.10;74.30
10062;DHT22;5070;52.382;5.270;2023-08-30T01:30:05;23.00;74.30
10062;DHT22;5070;52.382;5.270;2023-08-30T01:32:35;23.00;74.30
10062;DHT22;5070;52.382;5.270;2023-08-30T01:35:05;23.00;74.30
10062;DHT22;5070;52.382;5.270;2023-08-30T01:37:34;23.00;74.30
10062;DHT22;5070;52.382;5.270;2023-08-30T01:40:04;23.00;74.90
10062;DHT22;5070;52.382;5.270;2023-08-30T01:42:35;23.00;74.20
10062;DHT22;5070;52.382;5.270;2023-08-30T01:45:08;23.00;74.10
10062;DHT22;5070;52.382;5.270;2023-08-30T01:47:38;23.00;74.20
10062;DHT22;5070;52.382;5.270;2023-08-30T01:50:07;23.00;74.30
10062;DHT22;5070;52.382;5.270;2023-08-30T01:52:36;23.00;74.20
10062;DHT22;5070;52.382;5.270;2023-08-30T01:55:07;23.00;74.10
10062;DHT22;5070;52.382;5.270;2023-08-30T01:57:37;23.00;74.10
10062;DHT22;5070;52.382;5.270;2023-08-30T02:00:06;23.00;74.00
10062;DHT22;5070;52.382;5.270;2023-08-30T02:02:43;23.00;74.00
10062;DHT22;5070;52.382;5.270;2023-08-30T02:05:11;23.00;74.70
10062;DHT22;5070;52.382;5.270;2023-08-30T02:07:43;23.00;73.90
10062;DHT22;5070;52.382;5.270;2023-08-30T02:10:17;23.00;74.60
10062;DHT22;5070;52.382;5.270;2023-08-30T02:12:53;22.90;73.80
10062;DHT22;5070;52.382;5.270;2023-08-30T02:15:24;23.00;74.00
10062;DHT22;5070;52.382;5.270;2023-08-30T02:17:53;22.90;73.90
10062;DHT22;5070;52.382;5.270;2023-08-30T02:20:23;22.90;74.00
10062;DHT22;5070;52.382;5.270;2023-08-30T02:22:51;22.90;73.90
10062;DHT22;5070;52.382;5.270;2023-08-30T02:25:19;22.90;74.00
10062;DHT22;5070;52.382;5.270;2023-08-30T02:27:52;22.90;74.10
10062;DHT22;5070;52.382;5.270;2023-08-30T02:30:20;22.90;73.90
10062;DHT22;5070;52.382;5.270;2023-08-30T02:32:48;22.90;74.00
10062;DHT22;5070;52.382;5.270;2023-08-30T02:35:16;22.90;73.90
10062;DHT22;5070;52.382;5.270;2023-08-30T02:37:44;22.90;73.90
10062;DHT22;5070;52.382;5.270;2023-08-30T02:40:14;22.90;73.70
10062;DHT22;5070;52.382;5.270;2023-08-30T02:42:42;22.90;73.90
10062;DHT22;5070;52.382;5.270;2023-08-30T02:45:11;22.90;73.70
10062;DHT22;5070;52.382;5.270;2023-08-30T02:47:39;22.90;73.70
10062;DHT22;5070;52.382;5.270;2023-08-30T02:50:08;22.90;73.70
10062;DHT22;5070;52.382;5.270;2023-08-30T02:52:36;22.90;73.60
10062;DHT22;5070;52.382;5.270;2023-08-30T02:55:05;22.90;74.40
10062;DHT22;5070;52.382;5.270;2023-08-30T02:57:33;22.90;73.40
10062;DHT22;5070;52.382;5.270;2023-08-30T03:00:01;22.90;73.40
10062;DHT22;5070;52.382;5.270;2023-08-30T03:02:33;22.90;73.40
10062;DHT22;5070;52.382;5.270;2023-08-30T03:05:03;22.90;73.30
10062;DHT22;5070;52.382;5.270;2023-08-30T03:07:31;22.90;73.30
10062;DHT22;5070;52.382;5.270;2023-08-30T03:10:00;22.90;73.40
10062;DHT22;5070;52.382;5.270;2023-08-30T03:12:30;22.90;73.30
10062;DHT22;5070;52.382;5.270;2023-08-30T03:14:59;22.90;73.40
10062;DHT22;5070;52.382;5.270;2023-08-30T03:17:27;22.90;73.40
10062;DHT22;5070;52.382;5.270;2023-08-30T03:20:00;22.90;73.30
10062;DHT22;5070;52.382;5.270;2023-08-30T03:22:31;22.90;73.30
10062;DHT22;5070;52.382;5.270;2023-08-30T03:24:59;22.90;73.30
10062;DHT22;5070;52.382;5.270;2023-08-30T03:27:29;22.90;73.20
10062;DHT22;5070;52.382;5.270;2023-08-30T03:29:57;22.90;73.20
10062;DHT22;5070;52.382;5.270;2023-08-30T03:32:27;22.90;73.20
10062;DHT22;5070;52.382;5.270;2023-08-30T03:34:57;22.80;73.10
10062;DHT22;5070;52.382;5.270;2023-08-30T03:37:27;22.90;73.20
10062;DHT22;5070;52.382;5.270;2023-08-30T03:39:55;22.80;73.10
10062;DHT22;5070;52.382;5.270;2023-08-30T03:42:23;22.80;73.10
10062;DHT22;5070;52.382;5.270;2023-08-30T03:44:51;22.90;73.20
10062;DHT22;5070;52.382;5.270;2023-08-30T03:47:19;22.90;73.10
10062;DHT22;5070;52.382;5.270;2023-08-30T03:49:47;22.80;73.00
10062;DHT22;5070;52.382;5.270;2023-08-30T03:52:15;22.80;73.00
10062;DHT22;5070;52.382;5.270;2023-08-30T03:54:45;22.80;72.90
10062;DHT22;5070;52.382;5.270;2023-08-30T03:57:13;22.80;72.90
10062;DHT22;5070;52.382;5.270;2023-08-30T03:59:41;22.80;73.50
10062;DHT22;5070;52.382;5.270;2023-08-30T04:02:09;22.80;72.70
10062;DHT22;5070;52.382;5.270;2023-08-30T04:04:38;22.80;72.70
10062;DHT22;5070;52.382;5.270;2023-08-30T04:07:05;22.80;72.70
10062;DHT22;5070;52.382;5.270;2023-08-30T04:09:34;22.80;72.60
10062;DHT22;5070;52.382;5.270;2023-08-30T04:12:05;22.80;72.50
10062;DHT22;5070;52.382;5.270;2023-08-30T04:14:33;22.80;72.50
10062;DHT22;5070;52.382;5.270;2023-08-30T04:17:02;22.80;72.70
10062;DHT22;5070;52.382;5.270;2023-08-30T04:19:30;22.80;72.50
10062;DHT22;5070;52.382;5.270;2023-08-30T04:21:59;22.70;72.40
10062;DHT22;5070;52.382;5.270;2023-08-30T04:24:27;22.70;72.40
10062;DHT22;5070;52.382;5.270;2023-08-30T04:26:55;22.80;72.50
10062;DHT22;5070;52.382;5.270;2023-08-30T04:29:24;22.70;72.30
10062;DHT22;5070;52.382;5.270;2023-08-30T04:31:52;22.80;72.50
10062;DHT22;5070;52.382;5.270;2023-08-30T04:34:21;22.70;72.30
10062;DHT22;5070;52.382;5.270;2023-08-30T04:36:49;22.70;72.20
10062;DHT22;5070;52.382;5.270;2023-08-30T04:39:17;22.70;73.00
10062;DHT22;5070;52.382;5.270;2023-08-30T04:41:46;22.70;72.30
10062;DHT22;5070;52.382;5.270;2023-08-30T04:44:14;22.70;72.20
10062;DHT22;5070;52.382;5.270;2023-08-30T04:46:45;22.70;72.20
10062;DHT22;5070;52.382;5.270;2023-08-30T04:49:13;22.70;72.90
10062;DHT22;5070;52.382;5.270;2023-08-30T04:51:42;22.70;72.10
10062;DHT22;5070;52.382;5.270;2023-08-30T04:54:11;22.70;72.20
10062;DHT22;5070;52.382;5.270;2023-08-30T04:56:39;22.70;72.10
10062;DHT22;5070;52.382;5.270;2023-08-30T04:59:07;22.70;72.00
10062;DHT22;5070;52.382;5.270;2023-08-30T05:01:39;22.70;72.10
10062;DHT22;5070;52.382;5.270;2023-08-30T05:04:12;22.60;72.00
10062;DHT22;5070;52.382;5.270;2023-08-30T05:06:40;22.70;72.00
10062;DHT22;5070;52.382;5.270;2023-08-30T05:09:09;22.60;72.00
10062;DHT22;5070;52.382;5.270;2023-08-30T05:11:37;22.60;71.80
10062;DHT22;5070;52.382;5.270;2023-08-30T05:14:05;22.70;71.80
10062;DHT22;5070;52.382;5.270;2023-08-30T05:16:33;22.60;71.80
10062;DHT22;5070;52.382;5.270;2023-08-30T05:19:01;22.60;71.80
10062;DHT22;5070;52.382;5.270;2023-08-30T05:21:31;22.60;71.90
10062;DHT22;5070;52.382;5.270;2023-08-30T05:23:59;22.60;71.70
10062;DHT22;5070;52.382;5.270;2023-08-30T05:26:27;22.60;71.70
10062;DHT22;5070;52.382;5.270;2023-08-30T05:28:55;22.60;71.80
10062;DHT22;5070;52.382;5.270;2023-08-30T05:31:23;22.60;71.60
10062;DHT22;5070;52.382;5.270;2023-08-30T05:33:59;22.60;71.60
10062;DHT22;5070;52.382;5.270;2023-08-30T05:36:31;22.60;71.60
10062;DHT22;5070;52.382;5.270;2023-08-30T05:39:15;22.60;72.30
10062;DHT22;5070;52.382;5.270;2023-08-30T05:41:47;22.60;71.50
10062;DHT22;5070;52.382;5.270;2023-08-30T05:44:15;22.60;71.60
10062;DHT22;5070;52.382;5.270;2023-08-30T05:46:43;22.60;71.50
10062;DHT22;5070;52.382;5.270;2023-08-30T05:49:11;22.60;72.10
10062;DHT22;5070;52.382;5.270;2023-08-30T05:51:40;22.60;71.40
10062;DHT22;5070;52.382;5.270;2023-08-30T05:54:09;22.60;71.40
10062;DHT22;5070;52.382;5.270;2023-08-30T05:56:37;22.60;71.40
10062;DHT22;5070;52.382;5.270;2023-08-30T05:59:05;22.60;71.40
10062;DHT22;5070;52.382;5.270;2023-08-30T06:01:33;22.60;72.10
10062;DHT22;5070;52.382;5.270;2023-08-30T06:04:02;22.70;71.20
10062;DHT22;5070;52.382;5.270;2023-08-30T06:06:31;22.60;71.10
10062;DHT22;5070;52.382;5.270;2023-08-30T06:09:00;22.60;71.10
10062;DHT22;5070;52.382;5.270;2023-08-30T06:11:28;22.60;71.80
10062;DHT22;5070;52.382;5.270;2023-08-30T06:13:56;22.60;71.10
10062;DHT22;5070;52.382;5.270;2023-08-30T06:16:25;22.60;71.10
10062;DHT22;5070;52.382;5.270;2023-08-30T06:18:53;22.60;71.00
10062;DHT22;5070;52.382;5.270;2023-08-30T06:21:22;22.60;71.10
10062;DHT22;5070;52.382;5.270;2023-08-30T06:23:50;22.60;71.00
10062;DHT22;5070;52.382;5.270;2023-08-30T06:26:20;22.60;71.00
10062;DHT22;5070;52.382;5.270;2023-08-30T06:28:48;22.60;71.10
10062;DHT22;5070;52.382;5.270;2023-08-30T06:31:30;22.60;71.10
10062;DHT22;5070;52.382;5.270;2023-08-30T06:33:59;22.60;71.30
10062;DHT22;5070;52.382;5.270;2023-08-30T06:36:27;22.60;71.30
10062;DHT22;5070;52.382;5.270;2023-08-30T06:38:55;22.60;71.10
10062;DHT22;5070;52.382;5.270;2023-08-30T06:41:24;22.60;71.30
10062;DHT22;5070;52.382;5.270;2023-08-30T06:43:53;22.60;71.30
10062;DHT22;5070;52.382;5.270;2023-08-30T06:46:21;22.60;71.40
10062;DHT22;5070;52.382;5.270;2023-08-30T06:48:49;22.60;71.40
10062;DHT22;5070;52.382;5.270;2023-08-30T06:51:17;22.60;71.60
10062;DHT22;5070;52.382;5.270;2023-08-30T06:53:45;22.60;71.70
10062;DHT22;5070;52.382;5.270;2023-08-30T06:56:13;22.60;71.80
10062;DHT22;5070;52.382;5.270;2023-08-30T06:58:43;22.50;71.70
10062;DHT22;5070;52.382;5.270;2023-08-30T07:01:11;22.50;71.70
10062;DHT22;5070;52.382;5.270;2023-08-30T07:03:39;22.60;71.80
10062;DHT22;5070;52.382;5.270;2023-08-30T07:06:07;22.50;71.80
10062;DHT22;5070;52.382;5.270;2023-08-30T07:08:36;22.60;71.90
10062;DHT22;5070;52.382;5.270;2023-08-30T07:11:04;22.50;72.00
10062;DHT22;5070;52.382;5.270;2023-08-30T07:13:47;22.50;72.00
10062;DHT22;5070;52.382;5.270;2023-08-30T07:16:15;22.50;72.10
10062;DHT22;5070;52.382;5.270;2023-08-30T07:18:43;22.50;72.10
10062;DHT22;5070;52.382;5.270;2023-08-30T07:21:11;22.50;72.10
10062;DHT22;5070;52.382;5.270;2023-08-30T07:23:39;22.50;72.20
10062;DHT22;5070;52.382;5.270;2023-08-30T07:26:07;22.50;72.30
10062;DHT22;5070;52.382;5.270;2023-08-30T07:28:35;22.50;72.40
10062;DHT22;5070;52.382;5.270;2023-08-30T07:31:05;22.50;72.40
10062;DHT22;5070;52.382;5.270;2023-08-30T07:33:33;22.50;72.40
10062;DHT22;5070;52.382;5.270;2023-08-30T07:36:01;22.50;72.40
10062;DHT22;5070;52.382;5.270;2023-08-30T07:38:29;22.50;72.50
10062;DHT22;5070;52.382;5.270;2023-08-30T07:40:57;22.50;72.50
10062;DHT22;5070;52.382;5.270;2023-08-30T07:43:25;22.50;72.50
10062;DHT22;5070;52.382;5.270;2023-08-30T07:45:53;22.50;72.70
10062;DHT22;5070;52.382;5.270;2023-08-30T07:48:23;22.50;72.70
10062;DHT22;5070;52.382;5.270;2023-08-30T07:50:51;22.50;72.60
10062;DHT22;5070;52.382;5.270;2023-08-30T07:53:19;22.50;72.70
10062;DHT22;5070;52.382;5.270;2023-08-30T07:55:48;22.50;72.80
10062;DHT22;5070;52.382;5.270;2023-08-30T07:58:17;22.50;72.70
10062;DHT22;5070;52.382;5.270;2023-08-30T08:00:45;22.50;72.80
10062;DHT22;5070;52.382;5.270;2023-08-30T08:03:13;22.50;72.80
10062;DHT22;5070;52.382;5.270;2023-08-30T08:05:43;22.50;72.80
10062;DHT22;5070;52.382;5.270;2023-08-30T08:08:11;22.50;72.90
10062;DHT22;5070;52.382;5.270;2023-08-30T08:10:39;22.50;72.80
10062;DHT22;5070;52.382;5.270;2023-08-30T08:13:07;22.50;72.90
10062;DHT22;5070;52.382;5.270;2023-08-30T08:15:35;22.50;72.90
10062;DHT22;5070;52.382;5.270;2023-08-30T08:18:04;22.50;73.10
10062;DHT22;5070;52.382;5.270;2023-08-30T08:20:32;22.50;73.10
10062;DHT22;5070;52.382;5.270;2023-08-30T08:23:02;22.50;73.00
10062;DHT22;5070;52.382;5.270;2023-08-30T08:25:30;22.60;73.20
10062;DHT22;5070;52.382;5.270;2023-08-30T08:27:58;22.50;73.20
10062;DHT22;5070;52.382;5.270;2023-08-30T08:30:27;22.60;73.40
10062;DHT22;5070;52.382;5.270;2023-08-30T08:32:55;22.60;73.20
10062;DHT22;5070;52.382;5.270;2023-08-30T08:35:23;22.60;73.20
10062;DHT22;5070;52.382;5.270;2023-08-30T08:37:51;22.60;73.50
10062;DHT22;5070;52.382;5.270;2023-08-30T08:40:21;22.60;73.80
10062;DHT22;5070;52.382;5.270;2023-08-30T08:43:09;22.60;73.90
10062;DHT22;5070;52.382;5.270;2023-08-30T08:45:38;22.60;73.60
10062;DHT22;5070;52.382;5.270;2023-08-30T08:48:06;22.70;73.50
10062;DHT22;5070;52.382;5.270;2023-08-30T08:50:36;22.70;73.40
10062;DHT22;5070;52.382;5.270;2023-08-30T08:53:05;22.60;73.80
10062;DHT22;5070;52.382;5.270;2023-08-30T08:55:35;22.60;73.20
10062;DHT22;5070;52.382;5.270;2023-08-30T08:58:04;22.60;73.30
10062;DHT22;5070;52.382;5.270;2023-08-30T09:00:32;22.60;73.40
10062;DHT22;5070;52.382;5.270;2023-08-30T09:03:01;22.70;73.60
10062;DHT22;5070;52.382;5.270;2023-08-30T09:05:31;22.60;73.50
10062;DHT22;5070;52.382;5.270;2023-08-30T09:08:02;22.60;73.50
10062;DHT22;5070;52.382;5.270;2023-08-30T09:10:31;22.60;73.50
10062;DHT22;5070;52.382;5.270;2023-08-30T09:13:01;22.60;73.60
10062;DHT22;5070;52.382;5.270;2023-08-30T09:15:32;22.60;73.50
10062;DHT22;5070;52.382;5.270;2023-08-30T09:18:00;22.60;73.50
10062;DHT22;5070;52.382;5.270;2023-08-30T09:20:28;22.60;73.50
10062;DHT22;5070;52.382;5.270;2023-08-30T09:22:56;22.60;73.70
10062;DHT22;5070;52.382;5.270;2023-08-30T09:25:26;22.70;73.70
10062;DHT22;5070;52.382;5.270;2023-08-30T09:27:57;22.60;73.60
10062;DHT22;5070;52.382;5.270;2023-08-30T09:30:27;22.60;73.70
10062;DHT22;5070;52.382;5.270;2023-08-30T09:33:01;22.60;73.70
10062;DHT22;5070;52.382;5.270;2023-08-30T09:35:30;22.60;74.00
10062;DHT22;5070;52.382;5.270;2023-08-30T09:37:58;22.70;73.60
10062;DHT22;5070;52.382;5.270;2023-08-30T09:40:26;22.70;73.50
10062;DHT22;5070;52.382;5.270;2023-08-30T09:42:58;22.70;73.70
10062;DHT22;5070;52.382;5.270;2023-08-30T09:45:41;22.70;73.90
10062;DHT22;5070;52.382;5.270;2023-08-30T09:48:09;22.70;74.40
10062;DHT22;5070;52.382;5.270;2023-08-30T09:50:39;22.70;74.20
10062;DHT22;5070;52.382;5.270;2023-08-30T09:53:09;22.70;74.10
10062;DHT22;5070;52.382;5.270;2023-08-30T09:55:40;22.70;74.80
10062;DHT22;5070;52.382;5.270;2023-08-30T09:58:08;22.70;74.50
10062;DHT22;5070;52.382;5.270;2023-08-30T10:00:41;22.70;74.70
10062;DHT22;5070;52.382;5.270;2023-08-30T10:03:10;22.70;75.20
10062;DHT22;5070;52.382;5.270;2023-08-30T10:05:58;22.70;75.50
10062;DHT22;5070;52.382;5.270;2023-08-30T10:08:29;22.70;74.80
10062;DHT22;5070;52.382;5.270;2023-08-30T10:10:58;22.70;75.10
10062;DHT22;5070;52.382;5.270;2023-08-30T10:13:27;22.70;74.70
10062;DHT22;5070;52.382;5.270;2023-08-30T10:16:00;22.80;75.60
10062;DHT22;5070;52.382;5.270;2023-08-30T10:18:32;22.80;75.20
10062;DHT22;5070;52.382;5.270;2023-08-30T10:21:07;22.80;75.80
10062;DHT22;5070;52.382;5.270;2023-08-30T10:23:36;22.80;75.40
10062;DHT22;5070;52.382;5.270;2023-08-30T10:26:05;22.80;76.10
10062;DHT22;5070;52.382;5.270;2023-08-30T10:28:35;22.80;76.20
10062;DHT22;5070;52.382;5.270;2023-08-30T10:31:05;22.90;76.20
10062;DHT22;5070;52.382;5.270;2023-08-30T10:33:46;22.80;77.60
10062;DHT22;5070;52.382;5.270;2023-08-30T10:36:21;22.80;77.90
10062;DHT22;5070;52.382;5.270;2023-08-30T10:38:50;22.80;76.50
10062;DHT22;5070;52.382;5.270;2023-08-30T10:41:23;22.90;76.40
10062;DHT22;5070;52.382;5.270;2023-08-30T10:43:52;22.90;78.60
10062;DHT22;5070;52.382;5.270;2023-08-30T10:46:34;22.90;76.50
10062;DHT22;5070;52.382;5.270;2023-08-30T10:49:11;22.90;77.80
10062;DHT22;5070;52.382;5.270;2023-08-30T10:51:41;22.90;77.60
10062;DHT22;5070;52.382;5.270;2023-08-30T10:54:11;22.90;76.70
10062;DHT22;5070;52.382;5.270;2023-08-30T10:56:47;22.90;77.80
10062;DHT22;5070;52.382;5.270;2023-08-30T10:59:19;23.00;78.50
10062;DHT22;5070;52.382;5.270;2023-08-30T11:01:50;23.00;79.10
10062;DHT22;5070;52.382;5.270;2023-08-30T11:04:19;23.00;79.20
10062;DHT22;5070;52.382;5.270;2023-08-30T11:06:50;23.00;79.20
10062;DHT22;5070;52.382;5.270;2023-08-30T11:09:24;23.00;79.20
10062;DHT22;5070;52.382;5.270;2023-08-30T11:11:55;23.00;79.20
10062;DHT22;5070;52.382;5.270;2023-08-30T11:14:24;23.00;78.60
10062;DHT22;5070;52.382;5.270;2023-08-30T11:16:55;23.10;78.90
10062;DHT22;5070;52.382;5.270;2023-08-30T11:19:29;23.10;79.10
10062;DHT22;5070;52.382;5.270;2023-08-30T11:21:58;23.10;79.40
10062;DHT22;5070;52.382;5.270;2023-08-30T11:24:26;23.10;79.80
10062;DHT22;5070;52.382;5.270;2023-08-30T11:27:03;23.10;79.50
10062;DHT22;5070;52.382;5.270;2023-08-30T11:29:31;23.10;79.70
10062;DHT22;5070;52.382;5.270;2023-08-30T11:32:00;23.10;78.20
10062;DHT22;5070;52.382;5.270;2023-08-30T11:34:31;23.20;79.10
10062;DHT22;5070;52.382;5.270;2023-08-30T11:36:59;23.20;79.50
10062;DHT22;5070;52.382;5.270;2023-08-30T11:39:28;23.20;77.20
10062;DHT22;5070;52.382;5.270;2023-08-30T11:41:56;23.20;76.90
10062;DHT22;5070;52.382;5.270;2023-08-30T11:44:43;23.20;76.30
10062;DHT22;5070;52.382;5.270;2023-08-30T11:47:18;23.30;76.60
10062;DHT22;5070;52.382;5.270;2023-08-30T11:49:47;23.30;77.40
10062;DHT22;5070;52.382;5.270;2023-08-30T11:52:16;23.30;78.30
10062;DHT22;5070;52.382;5.270;2023-08-30T11:54:47;23.30;78.30
10062;DHT22;5070;52.382;5.270;2023-08-30T11:57:15;23.30;78.10
10062;DHT22;5070;52.382;5.270;2023-08-30T11:59:44;23.30;78.90
10062;DHT22;5070;52.382;5.270;2023-08-30T12:02:14;23.30;78.60
10062;DHT22;5070;52.382;5.270;2023-08-30T12:04:43;23.40;77.50
10062;DHT22;5070;52.382;5.270;2023-08-30T12:07:21;23.40;78.30
10062;DHT22;5070;52.382;5.270;2023-08-30T12:09:50;23.40;78.60
10062;DHT22;5070;52.382;5.270;2023-08-30T12:12:18;23.40;78.50
10062;DHT22;5070;52.382;5.270;2023-08-30T12:14:54;23.40;79.40
10062;DHT22;5070;52.382;5.270;2023-08-30T12:17:24;23.40;80.00
10062;DHT22;5070;52.382;5.270;2023-08-30T12:19:56;23.40;79.20
10062;DHT22;5070;52.382;5.270;2023-08-30T12:22:35;23.40;79.50
10062;DHT22;5070;52.382;5.270;2023-08-30T12:25:17;23.40;79.00
10062;DHT22;5070;52.382;5.270;2023-08-30T12:27:48;23.40;78.80
10062;DHT22;5070;52.382;5.270;2023-08-30T12:30:17;23.40;78.30
10062;DHT22;5070;52.382;5.270;2023-08-30T12:32:47;23.40;78.80
10062;DHT22;5070;52.382;5.270;2023-08-30T12:35:15;23.50;78.50
10062;DHT22;5070;52.382;5.270;2023-08-30T12:37:43;23.50;79.00
10062;DHT22;5070;52.382;5.270;2023-08-30T12:40:12;23.50;78.70
10062;DHT22;5070;52.382;5.270;2023-08-30T12:42:40;23.50;77.80
10062;DHT22;5070;52.382;5.270;2023-08-30T12:45:09;23.50;77.90
10062;DHT22;5070;52.382;5.270;2023-08-30T12:47:37;23.50;76.70
10062;DHT22;5070;52.382;5.270;2023-08-30T12:50:07;23.50;77.90
10062;DHT22;5070;52.382;5.270;2023-08-30T12:52:36;23.50;77.40
10062;DHT22;5070;52.382;5.270;2023-08-30T12:55:04;23.60;77.40
10062;DHT22;5070;52.382;5.270;2023-08-30T12:57:32;23.60;77.60
10062;DHT22;5070;52.382;5.270;2023-08-30T13:00:01;23.60;77.70
10062;DHT22;5070;52.382;5.270;2023-08-30T13:02:29;23.60;77.90
10062;DHT22;5070;52.382;5.270;2023-08-30T13:04:58;23.60;78.10
10062;DHT22;5070;52.382;5.270;2023-08-30T13:07:27;23.60;77.10
10062;DHT22;5070;52.382;5.270;2023-08-30T13:09:55;23.60;77.70
10062;DHT22;5070;52.382;5.270;2023-08-30T13:12:23;23.60;77.60
10062;DHT22;5070;52.382;5.270;2023-08-30T13:14:51;23.60;78.60
10062;DHT22;5070;52.382;5.270;2023-08-30T13:17:20;23.60;77.70
10062;DHT22;5070;52.382;5.270;2023-08-30T13:19:48;23.60;78.00
10062;DHT22;5070;52.382;5.270;2023-08-30T13:22:16;23.60;79.70
10062;DHT22;5070;52.382;5.270;2023-08-30T13:24:46;23.60;78.60
10062;DHT22;5070;52.382;5.270;2023-08-30T13:27:15;23.60;79.10
10062;DHT22;5070;52.382;5.270;2023-08-30T13:29:43;23.60;79.00
10062;DHT22;5070;52.382;5.270;2023-08-30T13:32:11;23.60;80.60
10062;DHT22;5070;52.382;5.270;2023-08-30T13:34:39;23.60;79.40
10062;DHT22;5070;52.382;5.270;2023-08-30T13:37:10;23.60;79.90
10062;DHT22;5070;52.382;5.270;2023-08-30T13:39:39;23.60;80.80
10062;DHT22;5070;52.382;5.270;2023-08-30T13:42:09;23.60;80.90
10062;DHT22;5070;52.382;5.270;2023-08-30T13:44:37;23.60;81.30
10062;DHT22;5070;52.382;5.270;2023-08-30T13:47:06;23.60;80.10
10062;DHT22;5070;52.382;5.270;2023-08-30T13:49:35;23.60;80.50
10062;DHT22;5070;52.382;5.270;2023-08-30T13:52:27;23.60;80.40
10062;DHT22;5070;52.382;5.270;2023-08-30T13:54:56;23.60;80.60
10062;DHT22;5070;52.382;5.270;2023-08-30T13:57:29;23.60;80.80
10062;DHT22;5070;52.382;5.270;2023-08-30T13:59:59;23.50;81.00
10062;DHT22;5070;52.382;5.270;2023-08-30T14:02:34;23.60;81.80
10062;DHT22;5070;52.382;5.270;2023-08-30T14:05:04;23.50;81.40
10062;DHT22;5070;52.382;5.270;2023-08-30T14:07:34;23.50;81.10
10062;DHT22;5070;52.382;5.270;2023-08-30T14:10:05;23.50;81.40
10062;DHT22;5070;52.382;5.270;2023-08-30T14:12:38;23.50;81.90
10062;DHT22;5070;52.382;5.270;2023-08-30T14:15:06;23.50;81.80
10062;DHT22;5070;52.382;5.270;2023-08-30T14:17:37;23.50;78.30
10062;DHT22;5070;52.382;5.270;2023-08-30T14:20:07;23.50;77.70
10062;DHT22;5070;52.382;5.270;2023-08-30T14:22:37;23.50;78.10
10062;DHT22;5070;52.382;5.270;2023-08-30T14:25:06;23.50;77.80
10062;DHT22;5070;52.382;5.270;2023-08-30T14:27:40;23.50;77.50
10062;DHT22;5070;52.382;5.270;2023-08-30T14:30:14;23.50;77.90
10062;DHT22;5070;52.382;5.270;2023-08-30T14:32:43;23.50;77.70
10062;DHT22;5070;52.382;5.270;2023-08-30T14:35:14;23.50;77.60
10062;DHT22;5070;52.382;5.270;2023-08-30T14:37:43;23.40;77.60
10062;DHT22;5070;52.382;5.270;2023-08-30T14:40:12;23.40;77.60
10062;DHT22;5070;52.382;5.270;2023-08-30T14:42:42;23.40;78.00
10062;DHT22;5070;52.382;5.270;2023-08-30T14:45:12;23.40;78.10
10062;DHT22;5070;52.382;5.270;2023-08-30T14:47:42;23.50;78.30
10062;DHT22;5070;52.382;5.270;2023-08-30T14:50:11;23.50;79.30
10062;DHT22;5070;52.382;5.270;2023-08-30T14:52:41;23.50;79.70
10062;DHT22;5070;52.382;5.270;2023-08-30T14:55:10;23.50;79.30
10062;DHT22;5070;52.382;5.270;2023-08-30T14:57:39;23.50;79.70
10062;DHT22;5070;52.382;5.270;2023-08-30T15:00:11;23.50;80.00
10062;DHT22;5070;52.382;5.270;2023-08-30T15:02:40;23.50;79.80
10062;DHT22;5070;52.382;5.270;2023-08-30T15:05:12;23.60;80.10
10062;DHT22;5070;52.382;5.270;2023-08-30T15:07:40;23.60;81.00
10062;DHT22;5070;52.382;5.270;2023-08-30T15:10:09;23.60;79.20
10062;DHT22;5070;52.382;5.270;2023-08-30T15:12:37;23.60;80.20
10062;DHT22;5070;52.382;5.270;2023-08-30T15:15:06;23.60;78.60
10062;DHT22;5070;52.382;5.270;2023-08-30T15:17:36;23.60;80.50
10062;DHT22;5070;52.382;5.270;2023-08-30T15:20:05;23.60;78.00
10062;DHT22;5070;52.382;5.270;2023-08-30T15:22:34;23.60;77.80
10062;DHT22;5070;52.382;5.270;2023-08-30T15:25:04;23.60;79.50
10062;DHT22;5070;52.382;5.270;2023-08-30T15:27:33;23.60;78.80
10062;DHT22;5070;52.382;5.270;2023-08-30T15:30:02;23.60;78.30
10062;DHT22;5070;52.382;5.270;2023-08-30T15:32:30;23.60;79.30
10062;DHT22;5070;52.382;5.270;2023-08-30T15:35:00;23.60;79.10
10062;DHT22;5070;52.382;5.270;2023-08-30T15:37:28;23.60;80.10
10062;DHT22;5070;52.382;5.270;2023-08-30T15:39:59;23.70;78.80
10062;DHT22;5070;52.382;5.270;2023-08-30T15:42:31;23.60;79.30
10062;DHT22;5070;52.382;5.270;2023-08-30T15:44:59;23.60;78.80
10062;DHT22;5070;52.382;5.270;2023-08-30T15:47:27;23.60;77.60
10062;DHT22;5070;52.382;5.270;2023-08-30T15:49:55;23.60;77.40
10062;DHT22;5070;52.382;5.270;2023-08-30T15:52:25;23.70;77.50
10062;DHT22;5070;52.382;5.270;2023-08-30T15:54:55;23.70;77.10
10062;DHT22;5070;52.382;5.270;2023-08-30T15:57:28;23.70;77.00
10062;DHT22;5070;52.382;5.270;2023-08-30T15:59:57;23.70;77.00